createdAt,value
2023-04-16T00:01:25.320Z,8.40
2023-04-16T00:03:52.202Z,8.30
2023-04-16T00:06:19.287Z,8.30
2023-04-16T00:08:46.201Z,8.20
2023-04-16T00:11:12.998Z,8.20
2023-04-16T00:13:39.876Z,8.20
2023-04-16T00:16:07.070Z,8.20
2023-04-16T00:18:33.774Z,8.20
2023-04-16T00:21:00.912Z,8.10
2023-04-16T00:23:27.660Z,8.10
2023-04-16T00:25:57.104Z,8.10
2023-04-16T00:28:23.890Z,8.10
2023-04-16T00:30:51.266Z,8.20
2023-04-16T00:33:18.037Z,8.10
2023-04-16T00:35:48.201Z,8.10
2023-04-16T00:38:15.321Z,8.10
2023-04-16T00:40:42.071Z,8.20
2023-04-16T00:43:09.017Z,8.10
2023-04-16T00:45:36.499Z,8.10
2023-04-16T00:48:04.754Z,8.00
2023-04-16T00:50:31.715Z,8.10
2023-04-16T00:52:58.609Z,8.20
2023-04-16T00:55:26.279Z,8.10
2023-04-16T00:57:53.311Z,8.10
2023-04-16T01:00:21.321Z,8.10
2023-04-16T01:02:48.365Z,8.20
2023-04-16T01:05:15.400Z,8.10
2023-04-16T01:07:42.131Z,8.10
2023-04-16T01:10:09.049Z,8.10
2023-04-16T01:12:35.762Z,8.20
2023-04-16T01:15:02.897Z,8.20
2023-04-16T01:17:29.615Z,8.20
2023-04-16T01:20:00.278Z,8.20
2023-04-16T01:22:28.442Z,8.20
2023-04-16T01:24:55.322Z,8.10
2023-04-16T01:27:23.479Z,8.10
2023-04-16T01:29:50.407Z,8.10
2023-04-16T01:32:22.820Z,8.10
2023-04-16T01:34:49.628Z,8.10
2023-04-16T01:37:17.184Z,8.20
2023-04-16T01:39:43.867Z,8.10
2023-04-16T01:42:10.858Z,8.10
2023-04-16T01:44:37.936Z,8.10
2023-04-16T01:47:04.851Z,8.10
2023-04-16T01:49:31.809Z,8.10
2023-04-16T01:51:58.553Z,8.20
2023-04-16T01:54:26.081Z,8.20
2023-04-16T01:56:52.796Z,8.10
2023-04-16T01:59:20.234Z,8.10
2023-04-16T02:01:47.184Z,8.10
2023-04-16T02:04:14.140Z,8.20
2023-04-16T02:06:41.607Z,8.10
2023-04-16T02:09:08.598Z,8.10
2023-04-16T02:11:37.393Z,8.10
2023-04-16T02:14:04.116Z,8.20
2023-04-16T02:16:31.138Z,8.20
2023-04-16T02:19:24.361Z,8.10
2023-04-16T02:21:55.027Z,8.10
2023-04-16T02:24:21.831Z,8.10
2023-04-16T02:26:48.941Z,8.00
2023-04-16T02:29:18.231Z,8.00
2023-04-16T02:31:51.832Z,8.00
2023-04-16T02:34:19.315Z,8.00
2023-04-16T02:36:46.312Z,7.90
2023-04-16T02:39:13.017Z,8.00
2023-04-16T02:41:39.815Z,8.00
2023-04-16T02:44:06.732Z,7.90
2023-04-16T02:46:33.442Z,8.00
2023-04-16T02:49:00.601Z,7.90
2023-04-16T02:51:27.724Z,7.90
2023-04-16T02:53:54.470Z,7.90
2023-04-16T02:56:21.219Z,7.90
2023-04-16T02:58:47.953Z,7.80
2023-04-16T03:01:14.725Z,7.80
2023-04-16T03:03:41.469Z,7.80
2023-04-16T03:06:08.488Z,7.80
2023-04-16T03:08:35.434Z,7.90
2023-04-16T03:11:02.358Z,7.80
2023-04-16T03:13:29.106Z,7.80
2023-04-16T03:15:56.098Z,7.90
2023-04-16T03:18:22.896Z,7.90
2023-04-16T03:20:53.794Z,7.80
2023-04-16T03:23:20.652Z,7.90
2023-04-16T03:25:47.999Z,7.80
2023-04-16T03:28:17.714Z,7.80
2023-04-16T03:30:53.385Z,7.80
2023-04-16T03:33:20.870Z,7.80
2023-04-16T03:35:47.650Z,7.90
2023-04-16T03:38:14.682Z,7.90
2023-04-16T03:40:41.557Z,7.90
2023-04-16T03:43:09.083Z,7.90
2023-04-16T03:45:35.934Z,7.90
2023-04-16T03:48:02.718Z,7.90
2023-04-16T03:50:30.335Z,7.90
2023-04-16T03:52:57.204Z,7.90
2023-04-16T03:55:23.995Z,7.90
2023-04-16T03:57:50.760Z,7.90
2023-04-16T04:00:17.673Z,7.90
2023-04-16T04:03:11.241Z,7.90
2023-04-16T04:05:41.009Z,8.00
2023-04-16T04:08:11.691Z,7.90
2023-04-16T04:10:38.871Z,7.90
2023-04-16T04:13:07.661Z,7.80
2023-04-16T04:15:35.773Z,7.80
2023-04-16T04:18:02.611Z,7.80
2023-04-16T04:20:29.449Z,7.80
2023-04-16T04:22:56.432Z,7.90
2023-04-16T04:25:25.556Z,7.90
2023-04-16T04:27:52.436Z,7.90
2023-04-16T04:30:19.205Z,7.90
2023-04-16T04:32:46.157Z,7.90
2023-04-16T04:35:13.238Z,7.90
2023-04-16T04:37:41.564Z,7.90
2023-04-16T04:40:15.130Z,7.90
2023-04-16T04:42:42.014Z,7.90
2023-04-16T04:45:10.320Z,7.90
2023-04-16T04:47:37.212Z,8.00
2023-04-16T04:50:04.389Z,7.90
2023-04-16T04:52:32.903Z,7.90
2023-04-16T04:55:01.284Z,7.90
2023-04-16T04:57:28.062Z,7.90
2023-04-16T04:59:55.189Z,7.90
2023-04-16T05:02:22.697Z,8.00
2023-04-16T05:04:49.471Z,8.00
2023-04-16T05:07:16.523Z,8.00
2023-04-16T05:09:43.479Z,8.00
2023-04-16T05:12:10.352Z,7.90
2023-04-16T05:14:37.222Z,7.90
2023-04-16T05:17:04.172Z,8.00
2023-04-16T05:19:30.880Z,8.00
2023-04-16T05:21:57.650Z,8.00
2023-04-16T05:24:24.383Z,8.00
2023-04-16T05:26:51.258Z,8.00
2023-04-16T05:29:17.995Z,8.00
2023-04-16T05:31:44.790Z,8.00
2023-04-16T05:34:11.600Z,8.00
2023-04-16T05:36:38.310Z,8.00
2023-04-16T05:39:05.089Z,8.00
2023-04-16T05:41:31.850Z,8.00
2023-04-16T05:43:58.603Z,8.10
2023-04-16T05:46:25.854Z,8.00
2023-04-16T05:48:52.641Z,8.10
2023-04-16T05:51:20.077Z,8.20
2023-04-16T05:53:46.749Z,8.20
2023-04-16T05:56:13.383Z,8.20
2023-04-16T05:58:40.358Z,8.20
2023-04-16T06:01:07.501Z,8.20
2023-04-16T06:03:34.261Z,8.20
2023-04-16T06:06:01.042Z,8.30
2023-04-16T06:08:27.860Z,8.40
2023-04-16T06:10:54.585Z,8.40
2023-04-16T06:13:21.404Z,8.50
2023-04-16T06:15:48.289Z,8.50
2023-04-16T06:18:15.234Z,8.50
2023-04-16T06:20:41.966Z,8.50
2023-04-16T06:23:08.674Z,8.50
2023-04-16T06:25:35.530Z,8.40
2023-04-16T06:28:02.269Z,8.40
2023-04-16T06:30:29.004Z,8.50
2023-04-16T06:32:55.817Z,8.40
2023-04-16T06:35:22.609Z,8.40
2023-04-16T06:37:49.352Z,8.40
2023-04-16T06:40:16.446Z,8.40
2023-04-16T06:42:44.886Z,8.40
2023-04-16T06:45:12.722Z,8.40
2023-04-16T06:47:39.432Z,8.40
2023-04-16T06:50:06.978Z,8.40
2023-04-16T06:52:33.735Z,8.40
2023-04-16T06:55:00.575Z,8.40
2023-04-16T06:57:27.239Z,8.40
2023-04-16T06:59:54.010Z,8.40
2023-04-16T07:02:21.086Z,8.40
2023-04-16T07:04:47.877Z,8.50
2023-04-16T07:07:14.529Z,8.50
2023-04-16T07:09:41.208Z,8.60
2023-04-16T07:12:08.283Z,8.60
2023-04-16T07:14:34.987Z,8.70
2023-04-16T07:17:01.673Z,8.60
2023-04-16T07:19:32.393Z,8.70
2023-04-16T07:21:59.928Z,8.70
2023-04-16T07:24:26.783Z,8.70
2023-04-16T07:26:53.630Z,8.70
2023-04-16T07:29:20.548Z,8.70
2023-04-16T07:31:47.441Z,8.70
2023-04-16T07:34:14.192Z,8.70
2023-04-16T07:36:41.328Z,8.70
2023-04-16T07:39:08.676Z,8.60
2023-04-16T07:41:35.908Z,8.70
2023-04-16T07:44:03.390Z,8.60
2023-04-16T07:46:36.213Z,8.60
2023-04-16T07:49:12.819Z,8.60
2023-04-16T07:51:39.520Z,8.60
2023-04-16T07:54:06.246Z,8.70
2023-04-16T07:56:32.990Z,8.70
2023-04-16T07:59:07.981Z,8.70
2023-04-16T08:01:41.547Z,8.80
2023-04-16T08:04:08.460Z,8.90
2023-04-16T08:06:35.465Z,9.00
2023-04-16T08:09:02.229Z,9.00
2023-04-16T08:11:29.006Z,9.00
2023-04-16T08:13:55.788Z,9.10
2023-04-16T08:16:22.705Z,9.20
2023-04-16T08:18:49.765Z,9.40
2023-04-16T08:21:16.569Z,9.30
2023-04-16T08:23:43.530Z,9.20
2023-04-16T08:26:10.250Z,9.20
2023-04-16T08:28:37.051Z,9.10
2023-04-16T08:31:03.841Z,9.00
2023-04-16T08:33:30.585Z,9.00
2023-04-16T08:35:57.243Z,9.00
2023-04-16T08:38:23.945Z,9.00
2023-04-16T08:40:51.226Z,9.00
2023-04-16T08:43:19.841Z,9.00
2023-04-16T08:45:47.613Z,9.00
2023-04-16T08:48:15.586Z,9.10
2023-04-16T08:50:44.871Z,9.00
2023-04-16T08:53:18.550Z,9.00
2023-04-16T08:55:50.347Z,9.00
2023-04-16T08:58:22.648Z,9.00
2023-04-16T09:00:50.078Z,9.00
2023-04-16T09:03:17.134Z,9.00
2023-04-16T09:05:44.145Z,9.00
2023-04-16T09:08:11.069Z,9.00
2023-04-16T09:10:37.779Z,9.10
2023-04-16T09:13:04.748Z,9.10
2023-04-16T09:15:35.049Z,9.10
2023-04-16T09:18:03.127Z,9.00
2023-04-16T09:20:30.211Z,9.10
2023-04-16T09:22:57.128Z,9.10
2023-04-16T09:25:25.569Z,9.10
2023-04-16T09:27:52.583Z,9.10
2023-04-16T09:30:21.881Z,9.10
2023-04-16T09:32:49.521Z,9.10
2023-04-16T09:35:18.638Z,9.20
2023-04-16T09:37:55.834Z,9.20
2023-04-16T09:40:27.515Z,9.20
2023-04-16T09:42:58.121Z,9.20
2023-04-16T09:45:24.864Z,9.20
2023-04-16T09:47:51.684Z,9.10
2023-04-16T09:50:19.981Z,9.10
2023-04-16T09:52:51.203Z,9.00
2023-04-16T09:55:23.894Z,9.00
2023-04-16T09:57:59.482Z,9.00
2023-04-16T10:00:26.323Z,8.90
2023-04-16T10:03:04.660Z,8.80
2023-04-16T10:05:31.507Z,8.80
2023-04-16T10:08:02.059Z,8.90
2023-04-16T10:10:29.463Z,8.90
2023-04-16T10:12:56.381Z,8.80
2023-04-16T10:15:23.491Z,8.80
2023-04-16T10:17:51.593Z,8.80
2023-04-16T10:20:18.845Z,8.80
2023-04-16T10:22:46.058Z,8.80
2023-04-16T10:25:13.367Z,8.80
2023-04-16T10:27:40.874Z,8.90
2023-04-16T10:30:09.283Z,8.80
2023-04-16T10:32:37.914Z,8.80
2023-04-16T10:35:05.314Z,8.80
2023-04-16T10:37:32.608Z,8.70
2023-04-16T10:40:00.051Z,8.70
2023-04-16T10:42:27.514Z,8.70
2023-04-16T10:44:54.456Z,8.70
2023-04-16T10:47:26.046Z,8.70
2023-04-16T10:49:52.956Z,8.70
2023-04-16T10:52:20.156Z,8.70
2023-04-16T10:54:50.535Z,8.70
2023-04-16T10:57:19.685Z,8.70
2023-04-16T10:59:48.424Z,8.60
2023-04-16T11:02:19.220Z,8.60
2023-04-16T11:04:48.322Z,8.60
2023-04-16T11:07:21.492Z,8.70
2023-04-16T11:10:06.443Z,8.70
2023-04-16T11:12:34.415Z,8.70
2023-04-16T11:15:08.824Z,8.60
2023-04-16T11:17:42.949Z,8.70
2023-04-16T11:20:20.951Z,8.70
2023-04-16T11:22:55.978Z,8.70
2023-04-16T11:25:24.422Z,8.60
2023-04-16T11:27:52.370Z,8.70
2023-04-16T11:30:28.435Z,8.70
2023-04-16T11:32:55.669Z,8.70
2023-04-16T11:35:22.593Z,8.80
2023-04-16T11:37:49.371Z,8.80
2023-04-16T11:40:16.128Z,8.80
2023-04-16T11:42:44.314Z,8.90
2023-04-16T11:45:12.308Z,8.90
2023-04-16T11:47:51.791Z,9.00
2023-04-16T11:50:26.331Z,9.00
2023-04-16T11:52:54.965Z,8.90
2023-04-16T11:55:22.675Z,8.90
2023-04-16T11:57:50.023Z,8.90
2023-04-16T12:00:19.026Z,9.00
2023-04-16T12:02:52.069Z,9.00
2023-04-16T12:05:35.322Z,9.10
2023-04-16T12:08:04.740Z,9.00
2023-04-16T12:10:36.738Z,9.10
2023-04-16T12:13:14.636Z,9.10
2023-04-16T12:15:55.972Z,9.20
2023-04-16T12:18:26.080Z,9.20
2023-04-16T12:20:53.008Z,9.30
2023-04-16T12:23:31.126Z,9.30
2023-04-16T12:26:02.534Z,9.40
2023-04-16T12:28:35.563Z,9.50
2023-04-16T12:31:03.380Z,9.50
2023-04-16T12:33:33.016Z,9.50
2023-04-16T12:35:59.907Z,9.50
2023-04-16T12:38:27.635Z,9.50
2023-04-16T12:40:56.938Z,9.60
2023-04-16T12:43:24.882Z,9.60
2023-04-16T12:45:51.657Z,9.60
2023-04-16T12:48:18.446Z,9.50
2023-04-16T12:50:46.023Z,9.50
2023-04-16T12:53:12.803Z,9.50
2023-04-16T12:55:39.525Z,9.50
2023-04-16T12:58:06.805Z,9.50
2023-04-16T13:00:33.531Z,9.60
2023-04-16T13:03:00.558Z,9.60
2023-04-16T13:05:27.781Z,9.70
2023-04-16T13:07:54.513Z,9.60
2023-04-16T13:10:22.036Z,9.60
2023-04-16T13:12:49.194Z,9.70
2023-04-16T13:15:16.154Z,9.80
2023-04-16T13:17:42.906Z,9.80
2023-04-16T13:20:10.623Z,9.80
2023-04-16T13:22:37.613Z,9.70
2023-04-16T13:25:05.065Z,9.80
2023-04-16T13:27:32.560Z,9.70
2023-04-16T13:29:59.520Z,9.60
2023-04-16T13:32:26.464Z,9.70
2023-04-16T13:34:53.226Z,9.70
2023-04-16T13:37:19.975Z,9.80
2023-04-16T13:39:47.316Z,9.70
2023-04-16T13:42:14.146Z,9.80
2023-04-16T13:44:41.052Z,9.80
2023-04-16T13:47:08.071Z,9.70
2023-04-16T13:49:36.141Z,9.70
2023-04-16T13:52:03.551Z,9.70
2023-04-16T13:54:30.386Z,9.70
2023-04-16T13:56:57.164Z,9.60
2023-04-16T13:59:23.951Z,9.70
2023-04-16T14:01:51.282Z,9.70
2023-04-16T14:04:18.232Z,9.80
2023-04-16T14:06:45.201Z,9.70
2023-04-16T14:09:12.065Z,9.80
2023-04-16T14:11:38.924Z,9.70
2023-04-16T14:14:05.677Z,9.80
2023-04-16T14:16:35.591Z,9.70
2023-04-16T14:19:02.416Z,9.70
2023-04-16T14:21:29.354Z,9.70
2023-04-16T14:23:56.146Z,9.70
2023-04-16T14:26:23.495Z,9.70
2023-04-16T14:28:51.148Z,9.70
2023-04-16T14:31:18.149Z,9.70
2023-04-16T14:33:45.066Z,9.70
2023-04-16T14:36:11.907Z,9.70
2023-04-16T14:38:38.688Z,9.70
2023-04-16T14:41:05.472Z,9.70
2023-04-16T14:43:32.242Z,9.70
2023-04-16T14:46:00.005Z,9.70
2023-04-16T14:48:26.848Z,9.70
2023-04-16T14:50:53.902Z,9.70
2023-04-16T14:53:20.861Z,9.80
2023-04-16T14:55:47.704Z,9.80
2023-04-16T14:58:14.434Z,9.80
2023-04-16T15:00:41.381Z,9.80
2023-04-16T15:03:08.223Z,9.70
2023-04-16T15:05:35.841Z,9.70
2023-04-16T15:08:02.667Z,9.80
2023-04-16T15:10:29.878Z,9.80
2023-04-16T15:12:56.626Z,9.80
2023-04-16T15:15:23.361Z,9.80
2023-04-16T15:17:51.064Z,9.80
2023-04-16T15:20:18.045Z,9.80
2023-04-16T15:22:44.812Z,9.80
2023-04-16T15:25:11.599Z,9.80
2023-04-16T15:27:38.396Z,9.70
2023-04-16T15:30:06.476Z,9.70
2023-04-16T15:32:33.278Z,9.80
2023-04-16T15:35:02.264Z,9.80
2023-04-16T15:37:29.007Z,9.80
2023-04-16T15:39:55.774Z,9.90
2023-04-16T15:42:23.535Z,9.90
2023-04-16T15:44:50.665Z,10.00
2023-04-16T15:47:17.361Z,10.00
2023-04-16T15:49:44.120Z,10.00
2023-04-16T15:52:14.241Z,10.10
2023-04-16T15:54:41.034Z,10.00
2023-04-16T15:57:07.896Z,10.10
2023-04-16T15:59:34.831Z,10.20
2023-04-16T16:02:01.846Z,10.20
2023-04-16T16:04:28.934Z,10.30
2023-04-16T16:06:56.694Z,10.30
2023-04-16T16:09:26.837Z,10.20
2023-04-16T16:11:54.518Z,10.10
2023-04-16T16:14:22.242Z,10.20
2023-04-16T16:16:49.456Z,10.20
2023-04-16T16:19:16.671Z,10.20
2023-04-16T16:21:44.398Z,10.10
2023-04-16T16:24:11.115Z,10.10
2023-04-16T16:26:37.958Z,10.10
2023-04-16T16:29:05.739Z,10.10
2023-04-16T16:31:32.802Z,10.20
2023-04-16T16:33:59.679Z,10.10
2023-04-16T16:36:27.592Z,10.10
2023-04-16T16:38:55.194Z,10.10
2023-04-16T16:41:22.467Z,10.10
2023-04-16T16:43:50.265Z,10.10
2023-04-16T16:46:16.995Z,10.10
2023-04-16T16:48:43.734Z,10.10
2023-04-16T16:51:11.085Z,10.10
2023-04-16T16:53:37.861Z,10.10
2023-04-16T16:56:04.772Z,10.20
2023-04-16T16:58:31.591Z,10.10
2023-04-16T17:00:58.689Z,10.10
2023-04-16T17:03:25.752Z,10.20
2023-04-16T17:05:52.584Z,10.10
2023-04-16T17:08:19.281Z,10.00
2023-04-16T17:10:46.077Z,10.00
2023-04-16T17:13:15.047Z,10.00
2023-04-16T17:15:42.003Z,10.10
2023-04-16T17:18:08.718Z,10.10
2023-04-16T17:20:35.510Z,10.10
2023-04-16T17:23:02.385Z,10.10
2023-04-16T17:25:29.296Z,10.00
2023-04-16T17:27:56.065Z,10.00
2023-04-16T17:30:27.363Z,10.00
2023-04-16T17:32:54.284Z,10.00
2023-04-16T17:35:21.260Z,10.00
2023-04-16T17:37:48.032Z,10.00
2023-04-16T17:40:18.045Z,10.00
2023-04-16T17:42:45.456Z,10.00
2023-04-16T17:45:12.675Z,10.00
2023-04-16T17:47:39.513Z,10.00
2023-04-16T17:50:07.356Z,10.00
2023-04-16T17:52:34.120Z,9.90
2023-04-16T17:55:01.526Z,9.90
2023-04-16T17:57:30.229Z,9.90
2023-04-16T17:59:57.038Z,9.90
2023-04-16T18:02:24.304Z,9.90
2023-04-16T18:04:51.574Z,9.90
2023-04-16T18:07:18.412Z,9.90
2023-04-16T18:09:45.226Z,9.90
2023-04-16T18:12:12.058Z,9.90
2023-04-16T18:14:40.615Z,9.90
2023-04-16T18:17:07.390Z,9.90
2023-04-16T18:19:35.426Z,9.90
2023-04-16T18:22:02.404Z,9.80
2023-04-16T18:24:29.203Z,9.80
2023-04-16T18:26:56.695Z,9.80
2023-04-16T18:29:25.227Z,9.80
2023-04-16T18:31:52.466Z,9.80
2023-04-16T18:34:19.399Z,9.80
2023-04-16T18:36:46.232Z,9.80
2023-04-16T18:39:13.363Z,9.80
2023-04-16T18:41:41.606Z,9.80
2023-04-16T18:44:10.712Z,9.70
2023-04-16T18:46:37.541Z,9.70
2023-04-16T18:49:04.293Z,9.70
2023-04-16T18:51:30.993Z,9.70
2023-04-16T18:53:57.790Z,9.70
2023-04-16T18:56:24.691Z,9.70
2023-04-16T18:58:51.486Z,9.70
2023-04-16T19:01:18.306Z,9.70
2023-04-16T19:03:45.477Z,9.70
2023-04-16T19:06:12.345Z,9.70
2023-04-16T19:08:39.116Z,9.70
2023-04-16T19:11:05.882Z,9.70
2023-04-16T19:13:32.540Z,9.60
2023-04-16T19:16:00.583Z,9.70
2023-04-16T19:18:27.460Z,9.70
2023-04-16T19:21:01.142Z,9.70
2023-04-16T19:23:28.992Z,9.70
2023-04-16T19:25:56.951Z,9.70
2023-04-16T19:28:24.664Z,9.70
2023-04-16T19:30:52.635Z,9.70
2023-04-16T19:33:19.745Z,9.60
2023-04-16T19:35:47.209Z,9.60
2023-04-16T19:38:14.053Z,9.60
2023-04-16T19:40:43.244Z,9.60
2023-04-16T19:43:09.948Z,9.70
2023-04-16T19:45:42.149Z,9.50
2023-04-16T19:48:08.983Z,9.60
2023-04-16T19:50:38.424Z,9.60
2023-04-16T19:53:05.400Z,9.60
2023-04-16T19:55:32.253Z,9.60
2023-04-16T19:58:05.517Z,9.50
2023-04-16T20:00:33.892Z,9.50
2023-04-16T20:03:00.905Z,9.50
2023-04-16T20:05:28.556Z,9.50
2023-04-16T20:07:55.813Z,9.50
2023-04-16T20:10:23.284Z,9.50
2023-04-16T20:12:51.273Z,9.50
2023-04-16T20:15:18.897Z,9.50
2023-04-16T20:17:45.818Z,9.50
2023-04-16T20:20:15.613Z,9.60
2023-04-16T20:22:43.098Z,9.50
2023-04-16T20:25:10.320Z,9.50
2023-04-16T20:27:37.134Z,9.50
2023-04-16T20:30:05.704Z,9.50
2023-04-16T20:32:32.469Z,9.50
2023-04-16T20:34:59.892Z,9.50
2023-04-16T20:37:28.675Z,9.50
2023-04-16T20:39:56.015Z,9.50
2023-04-16T20:42:23.293Z,9.40
2023-04-16T20:44:56.141Z,9.50
2023-04-16T20:47:23.350Z,9.50
2023-04-16T20:49:50.500Z,9.40
2023-04-16T20:52:17.306Z,9.40
2023-04-16T20:54:44.398Z,9.40
2023-04-16T20:57:11.116Z,9.40
2023-04-16T20:59:37.966Z,9.40
2023-04-16T21:02:04.846Z,9.40
2023-04-16T21:04:31.900Z,9.40
2023-04-16T21:06:58.739Z,9.40
2023-04-16T21:09:25.582Z,9.40
2023-04-16T21:11:52.325Z,9.40
2023-04-16T21:14:19.138Z,9.40
2023-04-16T21:16:45.861Z,9.30
2023-04-16T21:19:12.662Z,9.40
2023-04-16T21:21:39.703Z,9.30
2023-04-16T21:24:06.928Z,9.30
2023-04-16T21:26:33.671Z,9.30
2023-04-16T21:29:00.571Z,9.30
2023-04-16T21:31:27.485Z,9.30
2023-04-16T21:33:54.347Z,9.30
2023-04-16T21:36:21.317Z,9.30
2023-04-16T21:38:48.026Z,9.30
2023-04-16T21:41:14.766Z,9.30
2023-04-16T21:43:41.490Z,9.30
2023-04-16T21:46:08.201Z,9.30
2023-04-16T21:48:34.944Z,9.30
2023-04-16T21:51:06.284Z,9.30
2023-04-16T21:53:33.923Z,9.30
2023-04-16T21:56:00.889Z,9.40
2023-04-16T21:58:27.759Z,9.40
2023-04-16T22:00:54.547Z,9.30
2023-04-16T22:03:28.475Z,9.30
2023-04-16T22:06:00.872Z,9.20
2023-04-16T22:08:28.958Z,9.30
2023-04-16T22:10:59.674Z,9.30
2023-04-16T22:13:26.856Z,9.30
2023-04-16T22:15:54.748Z,9.20
2023-04-16T22:18:24.180Z,9.20
2023-04-16T22:20:56.073Z,9.20
2023-04-16T22:23:23.624Z,9.10
2023-04-16T22:25:52.483Z,9.10
2023-04-16T22:28:19.280Z,9.10
2023-04-16T22:30:46.008Z,9.10
2023-04-16T22:33:12.791Z,9.10
2023-04-16T22:35:39.606Z,9.10
2023-04-16T22:38:07.593Z,9.10
2023-04-16T22:40:34.395Z,9.00
2023-04-16T22:43:01.233Z,9.10
2023-04-16T22:45:28.370Z,9.10
2023-04-16T22:47:55.118Z,9.10
2023-04-16T22:50:23.094Z,9.00
2023-04-16T22:52:49.776Z,9.00
2023-04-16T22:55:16.738Z,9.00
2023-04-16T22:57:43.445Z,9.00
2023-04-16T23:00:17.504Z,9.00
2023-04-16T23:02:45.047Z,9.00
2023-04-16T23:05:12.220Z,9.00
2023-04-16T23:07:39.128Z,9.00
2023-04-16T23:10:08.172Z,9.00
2023-04-16T23:12:37.222Z,9.00
2023-04-16T23:15:06.335Z,9.00
2023-04-16T23:17:33.870Z,9.00
2023-04-16T23:20:00.990Z,8.90
2023-04-16T23:22:27.891Z,8.90
2023-04-16T23:24:54.682Z,8.90
2023-04-16T23:27:21.412Z,8.90
2023-04-16T23:29:48.068Z,8.90
2023-04-16T23:32:14.774Z,8.90
2023-04-16T23:34:41.996Z,8.90
2023-04-16T23:37:08.833Z,8.80
2023-04-16T23:39:35.818Z,8.80
2023-04-16T23:42:03.063Z,8.70
2023-04-16T23:44:29.849Z,8.70
2023-04-16T23:46:57.292Z,8.70
2023-04-16T23:49:24.115Z,8.70
2023-04-16T23:51:50.830Z,8.70
2023-04-16T23:54:17.682Z,8.70
2023-04-16T23:56:44.355Z,8.70
2023-04-16T23:59:11.485Z,8.60
